Time;durP1;ratioP1;P1;durP2;ratioP2;P2;SDS_P1;SDS_P2;PMS_P1;PMS_P2;Temp;Humidity;BMP_temperature;BMP_pressure;BME280_temperature;BME280_humidity;BME280_pressure;Samples;Min_cycle;Max_cycle;Signal;HPM_P1;HPM_P2
2023/07/03 00:00:25;;;;;;;17.90;11.90;;;;;;;;;;5135774;27;20716;-75
2023/07/03 00:02:52;;;;;;;18.57;11.47;;;;;;;;;;5135147;27;20671;-76
2023/07/03 00:05:21;;;;;;;19.70;12.23;;;;;;;;;;5135400;27;20752;-76
2023/07/03 00:07:49;;;;;;;16.57;11.33;;;;;;;;;;5135625;27;20221;-76
2023/07/03 00:10:17;;;;;;;19.07;12.57;;;;;;;;;;5135557;27;20260;-75
2023/07/03 00:12:44;;;;;;;17.33;11.77;;;;;;;;;;5135798;27;20204;-75
2023/07/03 00:15:12;;;;;;;16.73;12.07;;;;;;;;;;5135441;27;20193;-75
2023/07/03 00:17:39;;;;;;;19.70;12.43;;;;;;;;;;5135021;27;20201;-76
2023/07/03 00:20:08;;;;;;;19.43;12.00;;;;;;;;;;5135364;27;20608;-76
2023/07/03 00:22:39;;;;;;;18.37;12.17;;;;;;;;;;5135426;27;20242;-75
2023/07/03 00:25:06;;;;;;;17.77;11.50;;;;;;;;;;5135830;27;20220;-75
2023/07/03 00:27:34;;;;;;;17.23;11.50;;;;;;;;;;5135104;27;20197;-76
2023/07/03 00:30:01;;;;;;;16.90;11.80;;;;;;;;;;5134930;27;20257;-74
2023/07/03 00:32:28;;;;;;;18.20;12.23;;;;;;;;;;5134512;27;20580;-76
2023/07/03 00:34:56;;;;;;;23.23;11.90;;;;;;;;;;5135186;27;20221;-76
2023/07/03 00:37:23;;;;;;;18.70;11.47;;;;;;;;;;5134911;27;20225;-76
2023/07/03 00:39:51;;;;;;;18.80;11.50;;;;;;;;;;5134904;27;20288;-76
2023/07/03 00:42:18;;;;;;;17.77;10.60;;;;;;;;;;5135073;27;20213;-75
2023/07/03 00:44:46;;;;;;;18.87;11.47;;;;;;;;;;5134863;27;20691;-75
2023/07/03 00:47:13;;;;;;;17.77;11.57;;;;;;;;;;5134777;27;20292;-75
2023/07/03 00:49:40;;;;;;;19.10;11.17;;;;;;;;;;5134571;27;20343;-76
2023/07/03 00:52:09;;;;;;;20.47;11.20;;;;;;;;;;5133856;27;20276;-74
2023/07/03 00:54:36;;;;;;;20.23;11.40;;;;;;;;;;5134676;27;20296;-75
2023/07/03 00:57:05;;;;;;;21.90;11.23;;;;;;;;;;5134799;27;20296;-76
2023/07/03 00:59:33;;;;;;;17.67;11.30;;;;;;;;;;5134655;27;20217;-77
2023/07/03 01:02:04;;;;;;;18.73;10.57;;;;;;;;;;5134674;27;20726;-76
2023/07/03 01:04:34;;;;;;;16.43;11.03;;;;;;;;;;5134944;27;20197;-75
2023/07/03 01:07:03;;;;;;;16.80;10.80;;;;;;;;;;5134403;27;20645;-75
2023/07/03 01:09:33;;;;;;;19.97;10.93;;;;;;;;;;5134490;27;20311;-76
2023/07/03 01:12:00;;;;;;;14.60;10.63;;;;;;;;;;5134331;27;20238;-76
2023/07/03 01:14:30;;;;;;;19.43;9.97;;;;;;;;;;5134663;27;20239;-75
2023/07/03 01:16:58;;;;;;;17.13;10.67;;;;;;;;;;5134464;27;20203;-77
2023/07/03 01:19:29;;;;;;;15.50;10.17;;;;;;;;;;5134092;27;20280;-76
2023/07/03 01:22:00;;;;;;;15.47;10.00;;;;;;;;;;5134312;27;20190;-75
2023/07/03 01:24:33;;;;;;;16.33;9.40;;;;;;;;;;5134268;27;20220;-77
2023/07/03 01:27:01;;;;;;;17.97;9.93;;;;;;;;;;5134550;27;20556;-76
2023/07/03 01:29:28;;;;;;;17.50;9.83;;;;;;;;;;5133621;27;20378;-77
2023/07/03 01:31:56;;;;;;;17.27;9.60;;;;;;;;;;5134404;27;20193;-76
2023/07/03 01:34:24;;;;;;;14.60;9.20;;;;;;;;;;5134156;27;20288;-77
2023/07/03 01:36:51;;;;;;;16.58;9.55;;;;;;;;;;5133827;27;20197;-76
2023/07/03 01:39:19;;;;;;;17.50;9.23;;;;;;;;;;5133984;27;20705;-76
2023/07/03 01:41:47;;;;;;;12.20;8.03;;;;;;;;;;5134139;27;20617;-75
2023/07/03 01:44:15;;;;;;;15.73;8.50;;;;;;;;;;5133323;27;20203;-76
2023/07/03 01:46:42;;;;;;;15.03;8.20;;;;;;;;;;5133769;27;20608;-76
2023/07/03 01:49:12;;;;;;;13.60;7.93;;;;;;;;;;5133880;27;20288;-76
2023/07/03 01:51:44;;;;;;;16.57;7.77;;;;;;;;;;5133398;27;20328;-75
2023/07/03 01:54:12;;;;;;;13.00;7.20;;;;;;;;;;5133752;27;20285;-75
2023/07/03 01:56:42;;;;;;;13.97;7.23;;;;;;;;;;5134166;27;20189;-77
2023/07/03 01:59:12;;;;;;;11.33;6.70;;;;;;;;;;5133083;27;20194;-75
2023/07/03 02:01:43;;;;;;;10.97;6.53;;;;;;;;;;5133345;27;20193;-76
2023/07/03 02:04:12;;;;;;;11.80;6.60;;;;;;;;;;5133397;27;20712;-76
2023/07/03 02:06:41;;;;;;;12.00;5.90;;;;;;;;;;5133323;27;20217;-76
2023/07/03 02:09:08;;;;;;;10.53;6.10;;;;;;;;;;5133585;27;20291;-75
2023/07/03 02:11:36;;;;;;;11.43;5.87;;;;;;;;;;5133195;27;20228;-76
2023/07/03 02:14:03;;;;;;;9.90;6.13;;;;;;;;;;5133212;27;20225;-76
2023/07/03 02:16:32;;;;;;;11.87;5.50;;;;;;;;;;5133431;27;20686;-76
2023/07/03 02:18:59;;;;;;;9.37;5.20;;;;;;;;;;5132897;27;20593;-74
2023/07/03 02:21:28;;;;;;;11.43;4.83;;;;;;;;;;5132896;27;20198;-76
2023/07/03 02:23:55;;;;;;;8.53;5.10;;;;;;;;;;5133266;27;20246;-75
2023/07/03 02:26:22;;;;;;;8.07;5.10;;;;;;;;;;5132939;27;20330;-76
2023/07/03 02:28:50;;;;;;;8.17;4.90;;;;;;;;;;5132479;27;20704;-76
2023/07/03 02:31:17;;;;;;;8.63;5.20;;;;;;;;;;5133162;27;20224;-76
2023/07/03 02:33:46;;;;;;;8.63;4.80;;;;;;;;;;5124347;27;20206;-76
2023/07/03 02:36:13;;;;;;;9.37;4.77;;;;;;;;;;5119954;27;20300;-76
2023/07/03 02:38:40;;;;;;;8.73;4.83;;;;;;;;;;5112478;28;20225;-75
2023/07/03 02:41:07;;;;;;;6.07;3.87;;;;;;;;;;5112100;28;20670;-77
2023/07/03 02:43:35;;;;;;;4.37;2.97;;;;;;;;;;5112203;28;20297;-77
2023/07/03 02:46:04;;;;;;;5.03;2.63;;;;;;;;;;5112594;28;20288;-75
2023/07/03 02:48:31;;;;;;;4.23;2.70;;;;;;;;;;5112274;28;20201;-75
2023/07/03 02:50:59;;;;;;;3.17;2.40;;;;;;;;;;5112167;28;20324;-75
2023/07/03 02:53:27;;;;;;;4.17;2.33;;;;;;;;;;5112136;28;20229;-76
2023/07/03 02:55:55;;;;;;;2.77;2.20;;;;;;;;;;5112332;28;20189;-75
2023/07/03 02:58:22;;;;;;;3.90;2.27;;;;;;;;;;5112129;28;20221;-76
2023/07/03 03:00:50;;;;;;;3.40;2.00;;;;;;;;;;5112311;28;20217;-76
2023/07/03 03:03:18;;;;;;;2.47;2.00;;;;;;;;;;5121086;27;20193;-75
2023/07/03 03:05:45;;;;;;;2.40;2.13;;;;;;;;;;5132812;27;20224;-75
2023/07/03 03:08:13;;;;;;;3.77;2.00;;;;;;;;;;5132279;27;20250;-75
2023/07/03 03:10:40;;;;;;;3.10;2.30;;;;;;;;;;5131926;27;20775;-76
2023/07/03 03:13:08;;;;;;;2.83;2.20;;;;;;;;;;5132780;27;20691;-76
2023/07/03 03:15:36;;;;;;;4.87;2.50;;;;;;;;;;5131764;27;20693;-75
2023/07/03 03:18:03;;;;;;;4.00;2.10;;;;;;;;;;5132025;27;20192;-76
2023/07/03 03:20:30;;;;;;;3.70;2.60;;;;;;;;;;5132308;28;20720;-76
2023/07/03 03:22:57;;;;;;;3.50;2.77;;;;;;;;;;5132239;28;20189;-76
2023/07/03 03:25:26;;;;;;;4.97;2.70;;;;;;;;;;5131882;27;20246;-76
2023/07/03 03:27:53;;;;;;;4.60;3.00;;;;;;;;;;5132076;28;20276;-75
2023/07/03 03:30:21;;;;;;;5.07;3.37;;;;;;;;;;5131964;28;20220;-75
2023/07/03 03:32:48;;;;;;;6.63;3.80;;;;;;;;;;5132675;28;20192;-76
2023/07/03 03:35:15;;;;;;;5.10;3.40;;;;;;;;;;5132437;28;20216;-76
2023/07/03 03:37:42;;;;;;;4.67;3.60;;;;;;;;;;5131962;27;20764;-76
2023/07/03 03:40:10;;;;;;;5.47;3.50;;;;;;;;;;5131773;28;20644;-76
2023/07/03 03:42:39;;;;;;;7.33;3.87;;;;;;;;;;5132146;28;20609;-75
2023/07/03 03:45:06;;;;;;;8.00;3.60;;;;;;;;;;5132338;28;20287;-75
2023/07/03 03:47:33;;;;;;;8.50;4.00;;;;;;;;;;5133058;28;20203;-76
2023/07/03 03:50:00;;;;;;;7.13;3.70;;;;;;;;;;5131677;28;20327;-76
2023/07/03 03:52:28;;;;;;;4.33;3.77;;;;;;;;;;5132029;27;20193;-76
2023/07/03 03:54:55;;;;;;;7.47;4.40;;;;;;;;;;5132029;27;20280;-76
2023/07/03 03:57:22;;;;;;;4.97;3.97;;;;;;;;;;5132070;28;20276;-75
2023/07/03 03:59:51;;;;;;;7.73;4.27;;;;;;;;;;5131742;27;20224;-76
2023/07/03 04:02:18;;;;;;;6.20;4.43;;;;;;;;;;5131779;28;20606;-76
2023/07/03 04:04:45;;;;;;;6.33;4.07;;;;;;;;;;5131649;28;20280;-75
2023/07/03 04:07:12;;;;;;;7.40;4.27;;;;;;;;;;5131932;28;20281;-75
2023/07/03 04:09:39;;;;;;;11.90;4.70;;;;;;;;;;5131328;28;20229;-76
2023/07/03 04:12:07;;;;;;;6.67;4.50;;;;;;;;;;5132247;28;20260;-76
2023/07/03 04:14:34;;;;;;;7.77;5.00;;;;;;;;;;5132196;27;20197;-76
2023/07/03 04:17:04;;;;;;;11.33;5.37;;;;;;;;;;5131751;27;20293;-75
2023/07/03 04:19:31;;;;;;;8.13;4.77;;;;;;;;;;5131616;28;20900;-74
2023/07/03 04:21:59;;;;;;;9.57;5.50;;;;;;;;;;5131377;28;20736;-76
2023/07/03 04:24:26;;;;;;;9.90;5.30;;;;;;;;;;5131456;28;20723;-76
2023/07/03 04:26:54;;;;;;;10.20;5.60;;;;;;;;;;5131700;27;20233;-75
2023/07/03 04:29:22;;;;;;;9.67;5.47;;;;;;;;;;5134350;27;20203;-76
2023/07/03 04:31:49;;;;;;;10.80;5.77;;;;;;;;;;5135460;27;20228;-75
2023/07/03 04:34:17;;;;;;;14.50;5.83;;;;;;;;;;5135462;27;20628;-75
2023/07/03 04:36:47;;;;;;;12.87;6.00;;;;;;;;;;5135258;27;20275;-76
2023/07/03 04:39:14;;;;;;;11.03;5.90;;;;;;;;;;5135169;27;20729;-76
2023/07/03 04:41:41;;;;;;;11.17;5.70;;;;;;;;;;5135183;27;20193;-76
2023/07/03 04:44:12;;;;;;;11.33;6.40;;;;;;;;;;5134836;27;20284;-76
2023/07/03 04:46:39;;;;;;;13.33;5.90;;;;;;;;;;5135024;27;20197;-76
2023/07/03 04:49:06;;;;;;;12.33;6.57;;;;;;;;;;5135226;27;20297;-76
2023/07/03 04:51:35;;;;;;;13.67;6.13;;;;;;;;;;5134290;27;20266;-76
2023/07/03 04:54:03;;;;;;;10.67;6.37;;;;;;;;;;5134273;27;20224;-76
2023/07/03 04:56:32;;;;;;;9.97;6.00;;;;;;;;;;5134467;27;20660;-75
2023/07/03 04:58:59;;;;;;;13.07;6.20;;;;;;;;;;5134959;27;20251;-76
2023/07/03 05:01:26;;;;;;;12.47;6.60;;;;;;;;;;5134732;27;20217;-77
2023/07/03 05:03:54;;;;;;;10.53;6.17;;;;;;;;;;5134417;27;20280;-76
2023/07/03 05:06:21;;;;;;;14.13;6.83;;;;;;;;;;5134456;27;20197;-76
2023/07/03 05:08:49;;;;;;;14.90;6.53;;;;;;;;;;5134718;27;20224;-77
2023/07/03 05:11:17;;;;;;;13.53;6.97;;;;;;;;;;5134442;27;20327;-75
2023/07/03 05:13:44;;;;;;;14.43;6.93;;;;;;;;;;5134446;27;20287;-76
2023/07/03 05:16:11;;;;;;;17.97;7.30;;;;;;;;;;5134353;27;20243;-75
2023/07/03 05:18:39;;;;;;;13.17;6.77;;;;;;;;;;5134135;27;20227;-76
2023/07/03 05:21:06;;;;;;;16.17;8.07;;;;;;;;;;5134571;27;20201;-77
2023/07/03 05:23:34;;;;;;;14.63;7.20;;;;;;;;;;5134558;27;20200;-77
2023/07/03 05:26:02;;;;;;;14.47;6.20;;;;;;;;;;5134311;27;20744;-77
2023/07/03 05:28:29;;;;;;;12.13;5.57;;;;;;;;;;5134576;27;20189;-76
2023/07/03 05:30:57;;;;;;;13.80;5.70;;;;;;;;;;5134188;27;20319;-76
2023/07/03 05:33:24;;;;;;;15.30;6.40;;;;;;;;;;5134021;27;20288;-77
2023/07/03 05:35:51;;;;;;;13.80;6.63;;;;;;;;;;5133932;27;20572;-76
2023/07/03 05:38:18;;;;;;;13.33;6.57;;;;;;;;;;5133621;27;20226;-76
2023/07/03 05:40:46;;;;;;;13.93;6.50;;;;;;;;;;5134070;27;20292;-76
2023/07/03 05:43:14;;;;;;;18.37;6.73;;;;;;;;;;5134442;27;20288;-76
2023/07/03 05:45:42;;;;;;;11.83;6.27;;;;;;;;;;5133415;27;20657;-77
2023/07/03 05:48:09;;;;;;;13.20;6.73;;;;;;;;;;5133713;27;20568;-76
2023/07/03 05:50:36;;;;;;;12.55;6.13;;;;;;;;;;5133341;27;20342;-76
2023/07/03 05:53:04;;;;;;;10.15;5.65;;;;;;;;;;5134277;27;20200;-77
2023/07/03 05:55:31;;;;;;;14.85;6.00;;;;;;;;;;5110560;27;20201;-78
2023/07/03 05:57:58;;;;;;;11.98;6.43;;;;;;;;;;5121174;27;20279;-76
2023/07/03 06:00:30;;;;;;;10.43;6.25;;;;;;;;;;5132284;27;20228;-77
2023/07/03 06:02:59;;;;;;;11.65;5.85;;;;;;;;;;5133529;27;20250;-77
2023/07/03 06:05:26;;;;;;;12.23;5.82;;;;;;;;;;5132687;27;20196;-75
2023/07/03 06:07:53;;;;;;;10.15;5.72;;;;;;;;;;5133017;27;20225;-76
2023/07/03 06:10:21;;;;;;;10.05;5.50;;;;;;;;;;5133356;27;20401;-77
2023/07/03 06:12:48;;;;;;;13.05;5.63;;;;;;;;;;5133057;27;20225;-76
2023/07/03 06:15:15;;;;;;;9.55;5.35;;;;;;;;;;5132893;27;20200;-77
2023/07/03 06:17:44;;;;;;;10.57;4.93;;;;;;;;;;5132994;27;20629;-78
2023/07/03 06:20:11;;;;;;;12.90;5.18;;;;;;;;;;5132349;27;20217;-78
2023/07/03 06:22:39;;;;;;;9.70;4.97;;;;;;;;;;5132328;27;20200;-77
2023/07/03 06:25:07;;;;;;;10.80;5.07;;;;;;;;;;5132455;27;20190;-77
2023/07/03 06:27:34;;;;;;;10.98;5.20;;;;;;;;;;5132893;27;20196;-77
2023/07/03 06:30:01;;;;;;;10.50;4.88;;;;;;;;;;5132535;27;20292;-77
2023/07/03 06:32:28;;;;;;;11.52;5.15;;;;;;;;;;5132460;27;20319;-77
2023/07/03 06:34:57;;;;;;;11.63;5.18;;;;;;;;;;5130999;27;20284;-77
2023/07/03 06:37:24;;;;;;;9.85;4.93;;;;;;;;;;5132379;27;20280;-77
2023/07/03 06:39:52;;;;;;;8.27;5.03;;;;;;;;;;5124930;27;20237;-77
2023/07/03 06:42:19;;;;;;;13.60;5.10;;;;;;;;;;5132034;27;20276;-77
2023/07/03 06:44:46;;;;;;;9.85;4.80;;;;;;;;;;5132404;27;20608;-78
2023/07/03 06:47:13;;;;;;;11.57;5.05;;;;;;;;;;5132634;27;20224;-77
2023/07/03 06:49:40;;;;;;;8.70;4.50;;;;;;;;;;5131797;27;20279;-77
2023/07/03 06:52:10;;;;;;;10.80;4.15;;;;;;;;;;5131573;27;20320;-78
2023/07/03 06:54:37;;;;;;;10.73;4.72;;;;;;;;;;5131991;27;20608;-77
2023/07/03 06:57:04;;;;;;;13.45;4.97;;;;;;;;;;5131812;27;20192;-78
2023/07/03 06:59:31;;;;;;;8.60;4.20;;;;;;;;;;5132228;27;20283;-78
2023/07/03 07:01:59;;;;;;;10.35;4.72;;;;;;;;;;5131814;27;20296;-78
2023/07/03 07:04:27;;;;;;;8.95;4.57;;;;;;;;;;5131941;27;20731;-77
2023/07/03 07:06:54;;;;;;;7.38;4.25;;;;;;;;;;5131779;27;20201;-77
2023/07/03 07:09:23;;;;;;;10.63;4.47;;;;;;;;;;5131679;27;20204;-77
2023/07/03 07:11:50;;;;;;;8.60;4.20;;;;;;;;;;5132478;27;20221;-78
2023/07/03 07:14:18;;;;;;;8.98;4.20;;;;;;;;;;5121149;27;20301;-77
2023/07/03 07:16:45;;;;;;;8.50;4.15;;;;;;;;;;5128962;27;20556;-78
2023/07/03 07:19:13;;;;;;;11.15;4.10;;;;;;;;;;5131548;28;20679;-78
2023/07/03 07:21:42;;;;;;;7.88;4.00;;;;;;;;;;5131611;27;20292;-77
2023/07/03 07:24:16;;;;;;;9.25;4.10;;;;;;;;;;5131672;27;20196;-77
2023/07/03 07:26:44;;;;;;;7.53;3.90;;;;;;;;;;5120195;28;20866;-77
2023/07/03 07:29:11;;;;;;;9.98;4.32;;;;;;;;;;5111438;28;20285;-76
2023/07/03 07:31:39;;;;;;;8.15;3.72;;;;;;;;;;5111187;28;20217;-77
2023/07/03 07:34:06;;;;;;;9.73;3.97;;;;;;;;;;5111135;28;20670;-77
2023/07/03 07:36:34;;;;;;;7.97;3.78;;;;;;;;;;5111232;28;20288;-77
2023/07/03 07:39:01;;;;;;;10.60;4.30;;;;;;;;;;5111611;28;20193;-78
2023/07/03 07:41:29;;;;;;;8.85;4.20;;;;;;;;;;5111151;28;20232;-77
2023/07/03 07:43:58;;;;;;;7.18;3.80;;;;;;;;;;5111384;28;20215;-79
2023/07/03 07:46:28;;;;;;;9.10;4.30;;;;;;;;;;5110788;28;20288;-78
2023/07/03 07:48:56;;;;;;;10.20;4.03;;;;;;;;;;5111440;28;20224;-78
2023/07/03 07:51:23;;;;;;;11.40;3.83;;;;;;;;;;5110430;28;20282;-78
2023/07/03 07:53:50;;;;;;;8.63;4.10;;;;;;;;;;5111332;28;20221;-78
2023/07/03 07:56:17;;;;;;;8.82;4.00;;;;;;;;;;5110858;28;20272;-77
2023/07/03 07:58:44;;;;;;;11.32;4.10;;;;;;;;;;5110848;28;20267;-77
2023/07/03 08:01:14;;;;;;;10.00;4.10;;;;;;;;;;5110693;28;20218;-77
2023/07/03 08:03:42;;;;;;;10.93;3.80;;;;;;;;;;5114503;28;20304;-78
2023/07/03 08:06:09;;;;;;;9.57;4.03;;;;;;;;;;5115178;28;20225;-77
2023/07/03 08:08:37;;;;;;;8.48;3.80;;;;;;;;;;5114410;28;20759;-77
2023/07/03 08:11:05;;;;;;;9.65;4.25;;;;;;;;;;5115159;28;20190;-77
2023/07/03 08:13:33;;;;;;;7.72;3.83;;;;;;;;;;5114755;28;20316;-77
2023/07/03 08:16:00;;;;;;;7.88;3.75;;;;;;;;;;5126015;27;20648;-77
2023/07/03 08:18:29;;;;;;;8.68;3.85;;;;;;;;;;5135013;27;20197;-77
2023/07/03 08:20:56;;;;;;;7.30;3.83;;;;;;;;;;5134305;27;20661;-77
2023/07/03 08:23:23;;;;;;;9.88;3.80;;;;;;;;;;5135178;27;20224;-77
2023/07/03 08:25:51;;;;;;;11.07;4.03;;;;;;;;;;5135403;27;20280;-78
2023/07/03 08:28:18;;;;;;;11.40;3.72;;;;;;;;;;5134801;27;20208;-77
2023/07/03 08:30:46;;;;;;;8.52;3.78;;;;;;;;;;5134419;27;20224;-76
2023/07/03 08:33:13;;;;;;;10.63;3.97;;;;;;;;;;5125673;27;20765;-77
2023/07/03 08:35:42;;;;;;;7.60;3.85;;;;;;;;;;5114303;28;20189;-78
2023/07/03 08:38:10;;;;;;;8.77;3.95;;;;;;;;;;5114555;28;20280;-77
2023/07/03 08:40:37;;;;;;;11.80;4.20;;;;;;;;;;5114189;28;20213;-78
2023/07/03 08:43:06;;;;;;;9.45;3.67;;;;;;;;;;5114264;28;20292;-78
2023/07/03 08:45:36;;;;;;;9.45;4.20;;;;;;;;;;5113569;28;20198;-77
2023/07/03 08:48:06;;;;;;;12.57;4.05;;;;;;;;;;5113598;28;20289;-78
2023/07/03 08:50:34;;;;;;;12.68;4.47;;;;;;;;;;5113225;28;20294;-77
2023/07/03 08:53:03;;;;;;;10.07;4.38;;;;;;;;;;5113568;28;20705;-77
2023/07/03 08:55:33;;;;;;;9.48;4.65;;;;;;;;;;5113710;28;20194;-77
2023/07/03 08:58:00;;;;;;;8.68;3.90;;;;;;;;;;5115320;27;20672;-76
2023/07/03 09:00:28;;;;;;;11.98;4.45;;;;;;;;;;5113351;28;20289;-78
2023/07/03 09:02:59;;;;;;;11.80;4.30;;;;;;;;;;5113566;28;20232;-77
2023/07/03 09:05:37;;;;;;;8.88;3.90;;;;;;;;;;5113554;28;20251;-77
2023/07/03 09:08:07;;;;;;;8.80;4.30;;;;;;;;;;5113667;28;20678;-78
2023/07/03 09:10:36;;;;;;;13.07;4.18;;;;;;;;;;5114085;28;20218;-78
2023/07/03 09:13:06;;;;;;;10.15;3.90;;;;;;;;;;5113265;28;20321;-77
2023/07/03 09:15:35;;;;;;;8.35;3.80;;;;;;;;;;5121545;27;20289;-77
2023/07/03 09:18:04;;;;;;;9.93;3.88;;;;;;;;;;5134165;27;20350;-78
2023/07/03 09:20:31;;;;;;;7.43;3.95;;;;;;;;;;5134030;27;20193;-77
2023/07/03 09:23:01;;;;;;;10.68;3.78;;;;;;;;;;5134067;27;20242;-78
2023/07/03 09:25:32;;;;;;;9.45;3.92;;;;;;;;;;5133952;27;20236;-78
2023/07/03 09:28:00;;;;;;;8.85;4.13;;;;;;;;;;5133373;27;20681;-78
2023/07/03 09:30:28;;;;;;;9.52;4.03;;;;;;;;;;5133925;27;20232;-77
2023/07/03 09:32:55;;;;;;;7.22;4.00;;;;;;;;;;5133672;27;20614;-77
2023/07/03 09:35:23;;;;;;;12.43;4.00;;;;;;;;;;5133818;27;20193;-77
2023/07/03 09:37:51;;;;;;;7.82;3.75;;;;;;;;;;5133652;27;20220;-77
2023/07/03 09:40:22;;;;;;;12.90;4.72;;;;;;;;;;5133585;27;20652;-78
2023/07/03 09:42:51;;;;;;;8.02;3.95;;;;;;;;;;5132924;27;20284;-78
2023/07/03 09:45:19;;;;;;;8.20;3.72;;;;;;;;;;5134169;27;20627;-78
2023/07/03 09:47:49;;;;;;;8.27;4.00;;;;;;;;;;5133478;27;20231;-77
2023/07/03 09:50:17;;;;;;;10.00;3.53;;;;;;;;;;5133014;27;20672;-77
2023/07/03 09:52:44;;;;;;;8.50;3.97;;;;;;;;;;5133378;27;20309;-77
2023/07/03 09:55:12;;;;;;;15.15;4.80;;;;;;;;;;5133367;27;20284;-77
2023/07/03 09:57:40;;;;;;;9.30;3.92;;;;;;;;;;5132987;27;20193;-77
2023/07/03 10:00:12;;;;;;;8.65;3.92;;;;;;;;;;5132361;27;20799;-78
2023/07/03 10:02:40;;;;;;;9.27;3.85;;;;;;;;;;5132911;27;20197;-77
2023/07/03 10:05:07;;;;;;;10.65;4.18;;;;;;;;;;5133287;27;20197;-77
2023/07/03 10:07:40;;;;;;;11.40;3.75;;;;;;;;;;5133399;27;20273;-77
2023/07/03 10:10:10;;;;;;;7.88;3.80;;;;;;;;;;5133050;27;20280;-77
2023/07/03 10:12:39;;;;;;;8.52;3.92;;;;;;;;;;5132833;27;20216;-77
2023/07/03 10:15:08;;;;;;;7.72;3.95;;;;;;;;;;5133622;27;20224;-77
2023/07/03 10:17:40;;;;;;;8.35;3.70;;;;;;;;;;5132705;27;20764;-77
2023/07/03 10:20:09;;;;;;;7.07;3.70;;;;;;;;;;5132845;27;20205;-77
2023/07/03 10:22:38;;;;;;;10.75;3.53;;;;;;;;;;5133647;27;20201;-77
2023/07/03 10:25:07;;;;;;;8.05;3.92;;;;;;;;;;5138246;27;20200;-77
2023/07/03 10:27:35;;;;;;;8.27;3.30;;;;;;;;;;5145967;27;20962;-77
2023/07/03 10:30:05;;;;;;;5.50;3.42;;;;;;;;;;5147992;27;20276;-78
2023/07/03 10:32:34;;;;;;;6.38;3.60;;;;;;;;;;5153124;27;20314;-75
2023/07/03 10:35:04;;;;;;;7.10;3.85;;;;;;;;;;5140496;27;20193;-77
2023/07/03 10:37:33;;;;;;;9.77;3.80;;;;;;;;;;5134415;27;20562;-79
2023/07/03 10:40:03;;;;;;;7.10;3.83;;;;;;;;;;5148266;27;20216;-77
2023/07/03 10:42:33;;;;;;;7.97;3.88;;;;;;;;;;5132761;27;20215;-78
2023/07/03 10:45:02;;;;;;;6.50;3.70;;;;;;;;;;5132813;27;20288;-77
2023/07/03 10:47:32;;;;;;;8.02;4.03;;;;;;;;;;5132868;27;20224;-77
2023/07/03 10:49:59;;;;;;;6.43;3.47;;;;;;;;;;5137991;27;20576;-77
2023/07/03 10:52:30;;;;;;;6.75;3.88;;;;;;;;;;5129758;27;20279;-75
2023/07/03 10:55:04;;;;;;;7.63;3.55;;;;;;;;;;5131339;27;20669;-75
2023/07/03 10:57:34;;;;;;;8.15;3.65;;;;;;;;;;5129497;27;20199;-75
2023/07/03 11:00:07;;;;;;;8.70;4.20;;;;;;;;;;5131206;27;20288;-75
2023/07/03 11:02:36;;;;;;;6.82;4.20;;;;;;;;;;5129319;27;20742;-75
2023/07/03 11:05:08;;;;;;;8.73;4.22;;;;;;;;;;5130914;27;20228;-77
2023/07/03 11:07:38;;;;;;;5.75;3.55;;;;;;;;;;5130733;27;20222;-75
2023/07/03 11:10:09;;;;;;;5.63;3.35;;;;;;;;;;5130498;27;20280;-75
2023/07/03 11:12:39;;;;;;;4.85;3.42;;;;;;;;;;5130598;27;20203;-74
2023/07/03 11:15:13;;;;;;;7.20;3.63;;;;;;;;;;5130743;27;20228;-75
2023/07/03 11:17:45;;;;;;;6.72;3.67;;;;;;;;;;5130446;28;20284;-75
2023/07/03 11:20:16;;;;;;;9.57;3.95;;;;;;;;;;5129739;28;20272;-75
2023/07/03 11:22:48;;;;;;;5.32;3.53;;;;;;;;;;5130036;28;20288;-76
2023/07/03 11:25:20;;;;;;;6.32;3.53;;;;;;;;;;5131355;28;20283;-76
2023/07/03 11:27:51;;;;;;;5.43;3.40;;;;;;;;;;5131661;28;20220;-77
2023/07/03 11:30:18;;;;;;;5.50;3.63;;;;;;;;;;5131375;28;20212;-77
2023/07/03 11:32:46;;;;;;;6.18;3.60;;;;;;;;;;5131087;28;20266;-76
2023/07/03 11:35:14;;;;;;;6.32;3.70;;;;;;;;;;5131745;28;20224;-76
2023/07/03 11:37:46;;;;;;;6.57;3.83;;;;;;;;;;5131111;27;20201;-76
2023/07/03 11:40:33;;;;;;;6.80;3.70;;;;;;;;;;5134873;27;20197;-77
2023/07/03 11:43:32;;;;;;;6.60;3.80;;;;;;;;;;5135619;27;20271;-76
2023/07/03 11:46:17;;;;;;;7.65;3.75;;;;;;;;;;5051522;28;20223;-77
2023/07/03 11:48:52;;;;;;;8.75;3.88;;;;;;;;;;5036651;28;20290;-76
2023/07/03 11:51:32;;;;;;;6.47;3.55;;;;;;;;;;5050932;28;20280;-76
2023/07/03 11:54:01;;;;;;;5.72;3.40;;;;;;;;;;5050348;28;20313;-76
2023/07/03 11:56:49;;;;;;;8.35;3.50;;;;;;;;;;5051307;28;20196;-76
2023/07/03 11:59:27;;;;;;;8.18;3.28;;;;;;;;;;5048489;28;20196;-76
2023/07/03 12:01:54;;;;;;;7.70;3.80;;;;;;;;;;5047456;28;20298;-75
2023/07/03 12:04:39;;;;;;;6.80;3.88;;;;;;;;;;5049531;28;20286;-76
2023/07/03 12:07:06;;;;;;;6.97;3.40;;;;;;;;;;5047768;28;20390;-76
2023/07/03 12:09:35;;;;;;;6.30;3.38;;;;;;;;;;5049912;28;20275;-76
2023/07/03 12:12:16;;;;;;;7.05;3.45;;;;;;;;;;5049821;28;20269;-76
2023/07/03 12:14:56;;;;;;;5.70;3.45;;;;;;;;;;5048856;28;20306;-76
2023/07/03 12:17:24;;;;;;;10.40;3.80;;;;;;;;;;5048969;28;20196;-77
2023/07/03 12:19:51;;;;;;;7.75;3.90;;;;;;;;;;5082625;27;20284;-76
2023/07/03 12:22:20;;;;;;;5.20;3.28;;;;;;;;;;5131180;27;20296;-76
2023/07/03 12:24:49;;;;;;;6.63;3.38;;;;;;;;;;5133436;27;20692;-77
2023/07/03 12:27:23;;;;;;;5.90;3.80;;;;;;;;;;5134070;27;20213;-76
2023/07/03 12:29:50;;;;;;;8.80;4.03;;;;;;;;;;5134473;27;20197;-77
2023/07/03 12:32:24;;;;;;;8.70;3.65;;;;;;;;;;5134487;27;20602;-76
2023/07/03 12:34:51;;;;;;;7.82;3.50;;;;;;;;;;5131822;27;20806;-77
2023/07/03 12:37:22;;;;;;;6.55;3.67;;;;;;;;;;5131284;27;20687;-78
2023/07/03 12:39:51;;;;;;;7.40;3.65;;;;;;;;;;5131725;27;20280;-76
2023/07/03 12:42:22;;;;;;;7.45;3.22;;;;;;;;;;5134324;27;20672;-76
2023/07/03 12:44:50;;;;;;;7.75;3.63;;;;;;;;;;5130622;27;20292;-77
2023/07/03 12:47:18;;;;;;;8.60;4.13;;;;;;;;;;5134126;27;20560;-76
2023/07/03 12:49:59;;;;;;;8.73;3.70;;;;;;;;;;5133059;27;20324;-76
2023/07/03 12:52:27;;;;;;;6.00;3.25;;;;;;;;;;5131969;27;20656;-76
2023/07/03 12:54:56;;;;;;;7.22;3.45;;;;;;;;;;5133658;27;20224;-76
2023/07/03 12:57:24;;;;;;;7.95;3.40;;;;;;;;;;5131371;27;20232;-76
2023/07/03 12:59:52;;;;;;;5.85;3.17;;;;;;;;;;5133979;27;20196;-75
2023/07/03 13:02:21;;;;;;;7.10;3.58;;;;;;;;;;5130792;27;20670;-76
2023/07/03 13:04:53;;;;;;;8.15;3.72;;;;;;;;;;5133754;27;20197;-76
2023/07/03 13:07:21;;;;;;;6.57;4.40;;;;;;;;;;5133318;27;20672;-76
2023/07/03 13:09:50;;;;;;;7.40;3.75;;;;;;;;;;5133892;27;20197;-76
2023/07/03 13:12:19;;;;;;;8.63;4.00;;;;;;;;;;5133775;27;20227;-76
2023/07/03 13:14:59;;;;;;;7.10;3.60;;;;;;;;;;5133001;27;20225;-76
2023/07/03 13:17:27;;;;;;;6.63;3.50;;;;;;;;;;5132339;27;20193;-75
2023/07/03 13:19:55;;;;;;;8.07;3.63;;;;;;;;;;5133621;27;20228;-76
2023/07/03 13:22:22;;;;;;;7.30;4.10;;;;;;;;;;5133959;27;20197;-76
2023/07/03 13:24:50;;;;;;;6.07;3.30;;;;;;;;;;5134128;27;20284;-75
2023/07/03 13:27:23;;;;;;;7.05;3.70;;;;;;;;;;5133775;27;20204;-76
2023/07/03 13:29:51;;;;;;;6.25;3.70;;;;;;;;;;5133872;27;20203;-76
2023/07/03 13:32:19;;;;;;;6.93;3.85;;;;;;;;;;5132966;27;20197;-76
2023/07/03 13:34:54;;;;;;;6.25;3.60;;;;;;;;;;5133199;27;20316;-76
2023/07/03 13:37:23;;;;;;;7.63;3.75;;;;;;;;;;5133354;27;20200;-75
2023/07/03 13:39:51;;;;;;;7.18;3.80;;;;;;;;;;5134183;27;20189;-76
2023/07/03 13:42:19;;;;;;;10.45;4.20;;;;;;;;;;5133663;27;20217;-75
2023/07/03 13:44:47;;;;;;;5.65;3.70;;;;;;;;;;5133692;27;20231;-76
2023/07/03 13:47:14;;;;;;;5.43;3.17;;;;;;;;;;5133376;27;20189;-76
2023/07/03 13:49:43;;;;;;;5.90;3.47;;;;;;;;;;5130358;27;20284;-77
2023/07/03 13:52:10;;;;;;;4.50;3.40;;;;;;;;;;5131904;27;20258;-75
2023/07/03 13:54:37;;;;;;;5.95;3.92;;;;;;;;;;5132324;27;20231;-77
2023/07/03 13:57:05;;;;;;;6.55;3.70;;;;;;;;;;5132398;27;20268;-76
2023/07/03 13:59:32;;;;;;;7.00;3.80;;;;;;;;;;5135007;27;20290;-77
2023/07/03 14:02:01;;;;;;;7.50;3.90;;;;;;;;;;5130323;27;20280;-76
2023/07/03 14:04:28;;;;;;;6.57;3.88;;;;;;;;;;5137313;27;20280;-76
2023/07/03 14:06:55;;;;;;;7.18;3.72;;;;;;;;;;5139271;27;20283;-77
2023/07/03 14:09:23;;;;;;;5.13;3.90;;;;;;;;;;5142758;27;20249;-77
2023/07/03 14:11:50;;;;;;;9.60;4.07;;;;;;;;;;5147279;27;20188;-76
2023/07/03 14:14:18;;;;;;;6.60;3.63;;;;;;;;;;5135215;27;20311;-76
2023/07/03 14:16:45;;;;;;;7.70;4.13;;;;;;;;;;5134627;27;20624;-76
2023/07/03 14:19:14;;;;;;;5.60;3.45;;;;;;;;;;5133323;27;20234;-76
2023/07/03 14:21:41;;;;;;;7.20;3.40;;;;;;;;;;5145803;27;20675;-76
2023/07/03 14:24:09;;;;;;;6.53;3.65;;;;;;;;;;5149405;27;20203;-76
2023/07/03 14:26:36;;;;;;;8.45;3.65;;;;;;;;;;5130735;27;20682;-75
2023/07/03 14:29:03;;;;;;;6.53;3.92;;;;;;;;;;5144672;27;20221;-77
2023/07/03 14:31:31;;;;;;;6.15;3.45;;;;;;;;;;5143492;27;20235;-76
2023/07/03 14:33:58;;;;;;;7.20;3.72;;;;;;;;;;5135924;27;20255;-76
2023/07/03 14:36:26;;;;;;;8.45;4.00;;;;;;;;;;5148567;27;20283;-77
2023/07/03 14:38:55;;;;;;;7.18;3.90;;;;;;;;;;5139441;27;20200;-77
2023/07/03 14:41:22;;;;;;;6.40;3.65;;;;;;;;;;5143666;27;20189;-77
2023/07/03 14:43:49;;;;;;;7.40;3.60;;;;;;;;;;5137897;27;20225;-77